Time;durP1;ratioP1;P1;durP2;ratioP2;P2;SDS_P1;SDS_P2;PMS_P1;PMS_P2;Temp;Humidity;BMP_temperature;BMP_pressure;BME280_temperature;BME280_humidity;BME280_pressure;Samples;Min_cycle;Max_cycle;Signal;HPM_P1;HPM_P2
2022/07/31 00:01:28;;;;;;;11.57;5.88;;;;;;;;;;5068134;28;20028;-73
2022/07/31 00:03:54;;;;;;;8.00;5.70;;;;;;;;;;5090346;28;20492;-71
2022/07/31 00:06:20;;;;;;;7.93;5.30;;;;;;;;;;5090101;28;20049;-72
2022/07/31 00:08:48;;;;;;;6.60;5.43;;;;;;;;;;5092100;28;20019;-73
2022/07/31 00:11:14;;;;;;;6.40;4.95;;;;;;;;;;5091507;28;20062;-73
2022/07/31 00:13:40;;;;;;;8.20;5.15;;;;;;;;;;5088205;28;20111;-71
2022/07/31 00:16:06;;;;;;;11.23;5.65;;;;;;;;;;5087745;28;20095;-71
2022/07/31 00:18:34;;;;;;;8.98;5.60;;;;;;;;;;5092183;28;20425;-71
2022/07/31 00:21:01;;;;;;;6.03;5.22;;;;;;;;;;5090967;28;21356;-73
2022/07/31 00:23:27;;;;;;;7.95;5.30;;;;;;;;;;5092891;28;20049;-71
2022/07/31 00:25:53;;;;;;;7.75;4.72;;;;;;;;;;5086658;28;20063;-71
2022/07/31 00:28:19;;;;;;;7.90;5.78;;;;;;;;;;5090353;28;20036;-71
2022/07/31 00:30:46;;;;;;;8.65;5.63;;;;;;;;;;5072783;28;20468;-72
2022/07/31 00:33:13;;;;;;;8.95;5.80;;;;;;;;;;5088634;28;20034;-71
2022/07/31 00:35:39;;;;;;;7.43;5.55;;;;;;;;;;5089016;28;20037;-70
2022/07/31 00:38:05;;;;;;;11.00;5.70;;;;;;;;;;5074292;28;20438;-72
2022/07/31 00:40:32;;;;;;;9.48;5.47;;;;;;;;;;5072455;28;20038;-72
2022/07/31 00:42:58;;;;;;;6.30;4.97;;;;;;;;;;5092146;28;20028;-73
2022/07/31 00:45:25;;;;;;;9.68;5.35;;;;;;;;;;5085338;28;20039;-72
2022/07/31 00:47:51;;;;;;;7.88;5.18;;;;;;;;;;5072207;28;20395;-72
2022/07/31 00:50:17;;;;;;;8.00;5.40;;;;;;;;;;5070221;28;20464;-72
2022/07/31 00:52:44;;;;;;;7.22;5.03;;;;;;;;;;5071109;28;20139;-72
2022/07/31 00:55:10;;;;;;;7.82;5.18;;;;;;;;;;5082334;28;20395;-72
2022/07/31 00:57:36;;;;;;;9.68;5.20;;;;;;;;;;5087132;28;20472;-72
2022/07/31 01:00:04;;;;;;;8.73;5.18;;;;;;;;;;5070628;28;20122;-72
2022/07/31 01:02:30;;;;;;;7.45;4.80;;;;;;;;;;5086941;28;20030;-72
2022/07/31 01:04:56;;;;;;;7.78;5.03;;;;;;;;;;5072512;28;20024;-72
2022/07/31 01:07:22;;;;;;;11.50;4.93;;;;;;;;;;5089047;28;20430;-72
2022/07/31 01:09:49;;;;;;;7.95;5.40;;;;;;;;;;5080033;28;20036;-72
2022/07/31 01:12:22;;;;;;;7.88;5.03;;;;;;;;;;5088859;28;20024;-72
2022/07/31 01:14:54;;;;;;;7.93;5.38;;;;;;;;;;5087304;28;20039;-72
2022/07/31 01:17:22;;;;;;;8.25;5.55;;;;;;;;;;5083454;28;20124;-72
2022/07/31 01:19:50;;;;;;;8.95;5.57;;;;;;;;;;5070934;28;20031;-72
2022/07/31 01:22:16;;;;;;;7.40;5.20;;;;;;;;;;5074421;28;20023;-72
2022/07/31 01:25:02;;;;;;;9.10;5.47;;;;;;;;;;5070705;28;20111;-73
2022/07/31 01:27:38;;;;;;;9.43;5.90;;;;;;;;;;5076113;28;20132;-71
2022/07/31 01:30:04;;;;;;;8.43;5.60;;;;;;;;;;5054532;28;20495;-72
2022/07/31 01:32:37;;;;;;;7.75;5.50;;;;;;;;;;5069795;28;20106;-72
2022/07/31 01:35:25;;;;;;;7.50;6.00;;;;;;;;;;5068940;28;20036;-72
2022/07/31 01:38:00;;;;;;;7.07;5.05;;;;;;;;;;5054441;28;20469;-73
2022/07/31 01:40:29;;;;;;;6.57;4.93;;;;;;;;;;5079595;28;20050;-72
2022/07/31 01:42:58;;;;;;;8.65;5.03;;;;;;;;;;5087618;28;20028;-72
2022/07/31 01:45:25;;;;;;;9.90;5.80;;;;;;;;;;5073462;28;20035;-72
2022/07/31 01:47:52;;;;;;;8.23;5.10;;;;;;;;;;5071325;28;20122;-72
2022/07/31 01:50:20;;;;;;;11.88;5.88;;;;;;;;;;5071185;28;20074;-72
2022/07/31 01:52:47;;;;;;;7.60;5.40;;;;;;;;;;5067661;28;20121;-72
2022/07/31 01:55:14;;;;;;;7.22;5.38;;;;;;;;;;5073848;28;20020;-72
2022/07/31 01:57:41;;;;;;;11.55;5.85;;;;;;;;;;5073856;28;20031;-72
2022/07/31 02:00:08;;;;;;;8.68;5.10;;;;;;;;;;5050673;28;20031;-72
2022/07/31 02:02:42;;;;;;;8.82;5.28;;;;;;;;;;5079129;28;20056;-72
2022/07/31 02:05:10;;;;;;;5.97;5.35;;;;;;;;;;5085094;28;20030;-72
2022/07/31 02:07:37;;;;;;;7.90;4.88;;;;;;;;;;5071653;28;20396;-72
2022/07/31 02:10:04;;;;;;;7.40;5.53;;;;;;;;;;5069146;28;20028;-71
2022/07/31 02:12:32;;;;;;;7.93;5.05;;;;;;;;;;5072555;28;20028;-71
2022/07/31 02:14:59;;;;;;;7.50;4.95;;;;;;;;;;5071448;28;20036;-71
2022/07/31 02:17:25;;;;;;;7.10;4.68;;;;;;;;;;5086250;28;20116;-72
2022/07/31 02:20:11;;;;;;;7.43;4.93;;;;;;;;;;5094441;28;20054;-71
2022/07/31 02:22:37;;;;;;;9.48;6.10;;;;;;;;;;5069523;28;20020;-71
2022/07/31 02:25:04;;;;;;;8.18;4.80;;;;;;;;;;5072372;28;20068;-72
2022/07/31 02:27:33;;;;;;;8.25;4.93;;;;;;;;;;5075097;28;20535;-72
2022/07/31 02:30:01;;;;;;;8.63;5.45;;;;;;;;;;5079187;28;20024;-72
2022/07/31 02:32:28;;;;;;;7.50;5.03;;;;;;;;;;5076837;28;20143;-71
2022/07/31 02:34:55;;;;;;;6.15;5.18;;;;;;;;;;5092366;28;20032;-72
2022/07/31 02:37:22;;;;;;;8.18;5.25;;;;;;;;;;5088095;28;20023;-73
2022/07/31 02:39:49;;;;;;;7.93;5.28;;;;;;;;;;5068951;28;20035;-73
2022/07/31 02:42:16;;;;;;;11.82;5.78;;;;;;;;;;5074789;28;20491;-72
2022/07/31 02:44:42;;;;;;;8.85;5.65;;;;;;;;;;5072454;28;22532;-72
2022/07/31 02:47:09;;;;;;;7.80;5.15;;;;;;;;;;5070025;28;20122;-72
2022/07/31 02:49:35;;;;;;;7.55;5.55;;;;;;;;;;5078617;28;20040;-72
2022/07/31 02:52:03;;;;;;;8.20;5.78;;;;;;;;;;5072020;28;20031;-72
2022/07/31 02:54:29;;;;;;;12.48;5.57;;;;;;;;;;5069451;28;20073;-72
2022/07/31 02:56:55;;;;;;;7.22;5.13;;;;;;;;;;5074587;28;20034;-72
2022/07/31 02:59:23;;;;;;;7.38;5.38;;;;;;;;;;5072939;28;20020;-75
2022/07/31 03:01:58;;;;;;;11.38;5.55;;;;;;;;;;5074834;28;20044;-75
2022/07/31 03:04:25;;;;;;;11.27;6.50;;;;;;;;;;5071516;28;20027;-73
2022/07/31 03:06:53;;;;;;;7.65;5.40;;;;;;;;;;5057366;28;20470;-71
2022/07/31 03:09:19;;;;;;;7.40;5.60;;;;;;;;;;5070089;28;20396;-72
2022/07/31 03:11:49;;;;;;;8.48;5.72;;;;;;;;;;5072603;28;20043;-72
2022/07/31 03:14:15;;;;;;;10.15;5.40;;;;;;;;;;5091575;28;20618;-72
2022/07/31 03:16:41;;;;;;;9.60;5.72;;;;;;;;;;5073082;28;20583;-72
2022/07/31 03:19:08;;;;;;;11.68;5.18;;;;;;;;;;5073361;28;20479;-72
2022/07/31 03:21:35;;;;;;;8.02;5.65;;;;;;;;;;5075804;28;20047;-72
2022/07/31 03:24:03;;;;;;;7.80;5.43;;;;;;;;;;5087488;28;20023;-72
2022/07/31 03:26:29;;;;;;;7.82;5.32;;;;;;;;;;5070790;28;20403;-72
2022/07/31 03:28:56;;;;;;;9.13;5.22;;;;;;;;;;5071849;28;20034;-72
2022/07/31 03:31:22;;;;;;;7.40;5.15;;;;;;;;;;5073048;28;20032;-73
2022/07/31 03:33:48;;;;;;;7.45;4.93;;;;;;;;;;5069721;28;20047;-73
2022/07/31 03:36:15;;;;;;;7.25;4.97;;;;;;;;;;5072406;28;20487;-73
2022/07/31 03:38:41;;;;;;;8.75;4.95;;;;;;;;;;5084304;28;20566;-73
2022/07/31 03:41:09;;;;;;;8.30;4.80;;;;;;;;;;5072515;28;20061;-73
2022/07/31 03:43:36;;;;;;;5.95;4.38;;;;;;;;;;5073218;28;20448;-72
2022/07/31 03:46:03;;;;;;;4.85;4.20;;;;;;;;;;5072593;28;20081;-73
2022/07/31 03:48:30;;;;;;;5.68;4.53;;;;;;;;;;5071368;28;20028;-73
2022/07/31 03:50:58;;;;;;;8.38;4.72;;;;;;;;;;5070484;28;20032;-72
2022/07/31 03:53:26;;;;;;;9.13;5.47;;;;;;;;;;5059690;28;20048;-73
2022/07/31 03:55:53;;;;;;;8.25;3.92;;;;;;;;;;5067608;28;20016;-72
2022/07/31 03:58:19;;;;;;;5.70;4.00;;;;;;;;;;5090423;28;20055;-72
2022/07/31 04:00:45;;;;;;;5.68;4.10;;;;;;;;;;5081522;28;20147;-72
2022/07/31 04:03:13;;;;;;;6.45;4.50;;;;;;;;;;5073488;28;20024;-72
2022/07/31 04:05:51;;;;;;;7.63;4.53;;;;;;;;;;5070608;28;20032;-72
2022/07/31 04:08:17;;;;;;;9.63;4.60;;;;;;;;;;5076029;28;20070;-72
2022/07/31 04:10:44;;;;;;;7.78;4.85;;;;;;;;;;5069489;28;20444;-72
2022/07/31 04:13:13;;;;;;;4.90;3.50;;;;;;;;;;5070547;28;20500;-72
2022/07/31 04:15:40;;;;;;;5.20;4.28;;;;;;;;;;5075041;28;20055;-71
2022/07/31 04:18:06;;;;;;;7.47;3.80;;;;;;;;;;5076796;28;20020;-72
2022/07/31 04:20:38;;;;;;;8.45;3.70;;;;;;;;;;5076616;28;20452;-72
2022/07/31 04:23:04;;;;;;;6.03;3.97;;;;;;;;;;5077246;28;20028;-72
2022/07/31 04:25:48;;;;;;;6.90;3.85;;;;;;;;;;5089893;28;20047;-72
2022/07/31 04:28:24;;;;;;;6.35;4.15;;;;;;;;;;5100338;28;20551;-72
2022/07/31 04:30:50;;;;;;;5.47;3.53;;;;;;;;;;5093653;28;20020;-72
2022/07/31 04:33:17;;;;;;;7.03;3.83;;;;;;;;;;5073411;28;20063;-72
2022/07/31 04:35:43;;;;;;;9.52;4.85;;;;;;;;;;5053558;28;20028;-73
2022/07/31 04:38:10;;;;;;;5.90;3.50;;;;;;;;;;5072097;28;20024;-73
2022/07/31 04:40:38;;;;;;;9.50;5.07;;;;;;;;;;5074756;28;20020;-73
2022/07/31 04:43:04;;;;;;;6.78;4.22;;;;;;;;;;5059000;28;20127;-73
2022/07/31 04:45:30;;;;;;;7.57;4.07;;;;;;;;;;5077101;28;20483;-73
2022/07/31 04:47:56;;;;;;;5.07;3.72;;;;;;;;;;5073222;28;20035;-72
2022/07/31 04:50:23;;;;;;;6.30;3.97;;;;;;;;;;5073747;28;20019;-72
2022/07/31 04:52:57;;;;;;;4.50;3.30;;;;;;;;;;5090272;28;20442;-73
2022/07/31 04:55:24;;;;;;;6.32;4.13;;;;;;;;;;5070852;28;20035;-73
2022/07/31 04:57:50;;;;;;;14.77;4.13;;;;;;;;;;5056199;28;20039;-73
2022/07/31 05:00:17;;;;;;;6.82;4.03;;;;;;;;;;5056358;28;20032;-71
2022/07/31 05:02:43;;;;;;;5.95;3.83;;;;;;;;;;5071510;28;20688;-71
2022/07/31 05:05:09;;;;;;;7.63;3.97;;;;;;;;;;5066445;28;20031;-71
2022/07/31 05:07:41;;;;;;;6.78;3.63;;;;;;;;;;5060275;28;20028;-71
2022/07/31 05:11:21;;;;;;;7.68;4.60;;;;;;;;;;5075589;28;20051;-71
2022/07/31 05:12:59;;;;;;;6.18;3.45;;;;;;;;;;5057316;28;20024;-72
2022/07/31 05:15:27;;;;;;;5.50;3.78;;;;;;;;;;5075612;28;20047;-72
2022/07/31 05:17:54;;;;;;;7.80;4.13;;;;;;;;;;5063493;28;20021;-71
2022/07/31 05:20:52;;;;;;;6.10;4.20;;;;;;;;;;5008421;28;20108;-72
2022/07/31 05:23:42;;;;;;;6.47;3.83;;;;;;;;;;4999636;28;20030;-72
2022/07/31 05:26:17;;;;;;;4.82;3.78;;;;;;;;;;5005397;28;20030;-72
2022/07/31 05:28:43;;;;;;;6.22;4.40;;;;;;;;;;5002661;28;20058;-71
2022/07/31 05:31:09;;;;;;;6.82;3.75;;;;;;;;;;5001790;28;20034;-71
2022/07/31 05:33:37;;;;;;;6.68;3.90;;;;;;;;;;4989249;28;20041;-71
2022/07/31 05:36:03;;;;;;;5.03;3.38;;;;;;;;;;4988957;28;20490;-71
2022/07/31 05:38:29;;;;;;;5.78;3.22;;;;;;;;;;5006747;28;20025;-71
2022/07/31 05:41:29;;;;;;;6.53;3.38;;;;;;;;;;4973230;28;20117;-73
2022/07/31 05:44:18;;;;;;;7.85;3.80;;;;;;;;;;4927893;29;20079;-72
2022/07/31 05:46:46;;;;;;;6.53;3.33;;;;;;;;;;4926047;29;20096;-72
2022/07/31 05:49:12;;;;;;;5.38;3.60;;;;;;;;;;4915199;29;20587;-72
2022/07/31 05:51:38;;;;;;;5.38;2.90;;;;;;;;;;4923322;29;20032;-72
2022/07/31 05:54:04;;;;;;;3.83;3.25;;;;;;;;;;4926823;29;20043;-72
2022/07/31 05:56:49;;;;;;;5.55;3.92;;;;;;;;;;4973990;28;20053;-71
2022/07/31 05:59:19;;;;;;;4.65;3.10;;;;;;;;;;4993538;28;20029;-71
2022/07/31 06:01:45;;;;;;;4.30;2.83;;;;;;;;;;4987257;28;20037;-71
2022/07/31 06:04:12;;;;;;;7.32;3.50;;;;;;;;;;5004685;28;20038;-74
2022/07/31 06:06:41;;;;;;;5.13;3.00;;;;;;;;;;5004858;28;20112;-74
2022/07/31 06:09:07;;;;;;;3.17;2.55;;;;;;;;;;5008049;28;20214;-73
2022/07/31 06:11:37;;;;;;;3.78;2.58;;;;;;;;;;4994258;28;20060;-73
2022/07/31 06:14:03;;;;;;;9.57;2.70;;;;;;;;;;5006704;28;20077;-73
2022/07/31 06:16:48;;;;;;;4.90;2.58;;;;;;;;;;4994876;28;20034;-72
2022/07/31 06:19:15;;;;;;;3.45;2.10;;;;;;;;;;5008919;28;20037;-72
2022/07/31 06:21:41;;;;;;;4.28;2.10;;;;;;;;;;5041586;28;20036;-72
2022/07/31 06:24:08;;;;;;;2.92;2.20;;;;;;;;;;5061516;28;20036;-72
2022/07/31 06:26:39;;;;;;;2.97;1.80;;;;;;;;;;5072904;28;20029;-72
2022/07/31 06:29:06;;;;;;;2.55;2.08;;;;;;;;;;5065398;28;20024;-72
2022/07/31 06:31:32;;;;;;;4.90;2.13;;;;;;;;;;5075340;28;20032;-74
2022/07/31 06:33:58;;;;;;;3.75;2.10;;;;;;;;;;5064996;28;20034;-74
2022/07/31 06:36:31;;;;;;;3.22;1.73;;;;;;;;;;5079990;28;20551;-69
2022/07/31 06:39:00;;;;;;;2.78;1.95;;;;;;;;;;5063042;28;20021;-69
2022/07/31 06:44:30;;;;;;;3.97;1.77;;;;;;;;;;5083041;28;20025;-70
2022/07/31 06:47:15;;;;;;;3.95;1.80;;;;;;;;;;5078935;28;20412;-70
2022/07/31 06:50:05;;;;;;;1.92;1.70;;;;;;;;;;5071236;28;20112;-70
2022/07/31 06:52:42;;;;;;;3.45;1.67;;;;;;;;;;5071865;28;20047;-70
2022/07/31 06:55:10;;;;;;;2.90;1.42;;;;;;;;;;5076959;28;20028;-70
2022/07/31 06:57:37;;;;;;;2.30;1.60;;;;;;;;;;5063653;28;20025;-70
2022/07/31 07:00:04;;;;;;;3.92;1.80;;;;;;;;;;5077464;28;20028;-70
2022/07/31 07:02:30;;;;;;;4.68;1.63;;;;;;;;;;5071115;28;20480;-70
2022/07/31 07:04:56;;;;;;;4.63;1.77;;;;;;;;;;5078102;28;20620;-70
2022/07/31 07:07:22;;;;;;;3.00;1.70;;;;;;;;;;5052008;28;20111;-70
2022/07/31 07:09:50;;;;;;;3.25;1.90;;;;;;;;;;5063343;28;20160;-69
2022/07/31 07:12:32;;;;;;;2.47;1.55;;;;;;;;;;5064142;28;20056;-69
2022/07/31 07:14:58;;;;;;;3.97;1.40;;;;;;;;;;5063896;28;20428;-70
2022/07/31 07:17:25;;;;;;;2.10;1.48;;;;;;;;;;5063158;28;20036;-69
2022/07/31 07:19:51;;;;;;;3.08;1.55;;;;;;;;;;5067064;28;20044;-68
2022/07/31 07:22:18;;;;;;;3.38;1.67;;;;;;;;;;5067508;28;20426;-67
2022/07/31 07:24:45;;;;;;;3.47;1.50;;;;;;;;;;5089953;28;20035;-68
2022/07/31 07:27:19;;;;;;;3.00;1.73;;;;;;;;;;5069250;28;20415;-68
2022/07/31 07:29:45;;;;;;;1.33;1.20;;;;;;;;;;5078606;28;20040;-68
2022/07/31 07:32:13;;;;;;;1.45;1.25;;;;;;;;;;5072113;28;20048;-67
2022/07/31 07:34:40;;;;;;;1.45;1.10;;;;;;;;;;5076951;28;20023;-68
2022/07/31 07:37:08;;;;;;;2.30;1.20;;;;;;;;;;5071871;28;20054;-68
2022/07/31 07:39:34;;;;;;;2.00;1.30;;;;;;;;;;5081798;28;20035;-68
2022/07/31 07:42:00;;;;;;;1.85;0.98;;;;;;;;;;5069076;28;20024;-68
2022/07/31 07:44:26;;;;;;;1.23;0.90;;;;;;;;;;5076299;28;20051;-68
2022/07/31 07:46:53;;;;;;;3.10;1.00;;;;;;;;;;5070015;28;20088;-67
2022/07/31 07:49:20;;;;;;;4.60;0.63;;;;;;;;;;5069824;28;20050;-68
2022/07/31 07:51:49;;;;;;;4.45;0.88;;;;;;;;;;5083575;28;20058;-68
2022/07/31 07:54:47;;;;;;;3.67;0.70;;;;;;;;;;5053976;28;20044;-68
2022/07/31 07:57:32;;;;;;;0.98;0.60;;;;;;;;;;5080947;28;20396;-69
2022/07/31 08:00:30;;;;;;;7.13;0.80;;;;;;;;;;5063124;28;20043;-68
2022/07/31 08:03:01;;;;;;;2.80;0.85;;;;;;;;;;5064442;28;20426;-68
2022/07/31 08:05:27;;;;;;;1.77;1.00;;;;;;;;;;5072358;28;20024;-69
2022/07/31 08:07:53;;;;;;;2.13;1.10;;;;;;;;;;5069616;28;20032;-69
2022/07/31 08:10:40;;;;;;;2.35;0.85;;;;;;;;;;5087456;28;20040;-68
2022/07/31 08:13:14;;;;;;;3.22;0.90;;;;;;;;;;5069424;28;20496;-68
2022/07/31 08:16:16;;;;;;;2.35;1.17;;;;;;;;;;5085840;28;20044;-69
2022/07/31 08:18:50;;;;;;;3.35;1.23;;;;;;;;;;5072557;28;20128;-68
2022/07/31 08:21:16;;;;;;;2.60;1.10;;;;;;;;;;5067366;28;20441;-69
2022/07/31 08:23:42;;;;;;;3.30;1.02;;;;;;;;;;5095840;28;20059;-69
2022/07/31 08:26:09;;;;;;;1.90;1.10;;;;;;;;;;5072518;28;20372;-69
2022/07/31 08:28:35;;;;;;;1.40;0.93;;;;;;;;;;5091357;28;20028;-69
2022/07/31 08:31:02;;;;;;;1.75;1.00;;;;;;;;;;5066784;28;20032;-69
2022/07/31 08:33:31;;;;;;;2.25;1.30;;;;;;;;;;5065566;28;20035;-69
2022/07/31 08:35:58;;;;;;;1.17;1.00;;;;;;;;;;5068845;28;20024;-69
2022/07/31 08:38:24;;;;;;;4.45;1.10;;;;;;;;;;5064443;28;20028;-69
2022/07/31 08:41:13;;;;;;;6.97;0.90;;;;;;;;;;5078610;28;20105;-69
2022/07/31 08:43:39;;;;;;;2.50;0.75;;;;;;;;;;5061338;28;20028;-68
2022/07/31 08:46:07;;;;;;;1.75;1.20;;;;;;;;;;5064691;28;20060;-68
2022/07/31 08:48:39;;;;;;;1.15;0.70;;;;;;;;;;5075191;28;20119;-68
2022/07/31 08:51:06;;;;;;;1.08;0.60;;;;;;;;;;5079736;28;20059;-69
2022/07/31 08:53:51;;;;;;;1.80;1.20;;;;;;;;;;5082047;28;20058;-68
2022/07/31 08:56:19;;;;;;;1.00;0.68;;;;;;;;;;5065411;28;20448;-69
2022/07/31 08:58:46;;;;;;;2.30;1.00;;;;;;;;;;5083027;28;20020;-69
2022/07/31 09:01:12;;;;;;;0.80;0.40;;;;;;;;;;5066922;28;20127;-68
2022/07/31 09:03:39;;;;;;;1.73;0.70;;;;;;;;;;5061825;28;20421;-68
2022/07/31 09:06:09;;;;;;;0.80;0.60;;;;;;;;;;5075177;28;20130;-71
2022/07/31 09:08:37;;;;;;;1.05;0.60;;;;;;;;;;5062652;28;20047;-70
2022/07/31 09:11:09;;;;;;;2.70;0.98;;;;;;;;;;5064941;28;20585;-70
2022/07/31 09:13:38;;;;;;;1.13;0.60;;;;;;;;;;5068526;28;20084;-70
2022/07/31 09:16:22;;;;;;;0.80;0.70;;;;;;;;;;5069942;28;20040;-70
2022/07/31 09:18:55;;;;;;;1.55;0.65;;;;;;;;;;5083360;28;20025;-70
2022/07/31 09:21:22;;;;;;;1.52;0.50;;;;;;;;;;5066682;28;20063;-70
2022/07/31 09:23:48;;;;;;;1.23;0.60;;;;;;;;;;5058763;28;20119;-70
2022/07/31 09:26:15;;;;;;;1.00;0.75;;;;;;;;;;5061217;28;20036;-69
2022/07/31 09:28:44;;;;;;;1.08;0.60;;;;;;;;;;5066752;28;20400;-68
2022/07/31 09:31:12;;;;;;;1.10;0.50;;;;;;;;;;5067968;28;20078;-67
2022/07/31 09:34:05;;;;;;;2.40;0.77;;;;;;;;;;5021742;28;20950;-67
2022/07/31 09:36:40;;;;;;;0.85;0.52;;;;;;;;;;5023294;28;20041;-67
2022/07/31 09:39:38;;;;;;;0.93;0.60;;;;;;;;;;4979943;28;20065;-68
2022/07/31 09:42:34;;;;;;;0.73;0.68;;;;;;;;;;5016660;28;20057;-68
2022/07/31 09:45:04;;;;;;;6.38;1.42;;;;;;;;;;5004642;28;20224;-68
2022/07/31 09:47:33;;;;;;;2.30;1.10;;;;;;;;;;5007389;28;20040;-71
2022/07/31 09:50:03;;;;;;;2.40;1.63;;;;;;;;;;5022282;28;20022;-70
2022/07/31 09:52:31;;;;;;;2.03;1.15;;;;;;;;;;5020907;28;20045;-70
2022/07/31 09:55:04;;;;;;;2.75;1.70;;;;;;;;;;5002855;28;20717;-70
2022/07/31 09:57:30;;;;;;;3.60;1.10;;;;;;;;;;5038951;28;20128;-71
2022/07/31 09:59:59;;;;;;;2.78;1.40;;;;;;;;;;5010295;28;20083;-68
2022/07/31 10:02:26;;;;;;;2.20;1.00;;;;;;;;;;5019671;28;20492;-68
2022/07/31 10:04:54;;;;;;;2.58;1.25;;;;;;;;;;5041961;28;20041;-68
2022/07/31 10:07:24;;;;;;;1.35;0.88;;;;;;;;;;5009343;28;20060;-68
2022/07/31 10:09:53;;;;;;;1.48;1.08;;;;;;;;;;5026006;28;20069;-68
2022/07/31 10:12:53;;;;;;;1.77;1.10;;;;;;;;;;5077106;28;20020;-68
2022/07/31 10:15:20;;;;;;;3.60;1.50;;;;;;;;;;5073733;28;20048;-68
2022/07/31 10:18:01;;;;;;;4.13;1.45;;;;;;;;;;5039183;28;20043;-68
2022/07/31 10:20:56;;;;;;;3.30;1.10;;;;;;;;;;5029645;28;20386;-67
2022/07/31 10:23:39;;;;;;;1.83;1.40;;;;;;;;;;5032045;28;20055;-68
2022/07/31 10:26:07;;;;;;;4.68;1.85;;;;;;;;;;5029144;28;20456;-68
2022/07/31 10:28:36;;;;;;;2.80;1.60;;;;;;;;;;5044743;28;20053;-67
2022/07/31 10:31:03;;;;;;;4.38;1.45;;;;;;;;;;5060288;28;20021;-67
2022/07/31 10:33:30;;;;;;;1.67;1.25;;;;;;;;;;5046884;28;20131;-66
2022/07/31 10:36:24;;;;;;;3.63;1.10;;;;;;;;;;5043570;28;20031;-69
2022/07/31 10:39:19;;;;;;;2.63;1.08;;;;;;;;;;5041678;28;20030;-67
2022/07/31 10:41:53;;;;;;;4.20;1.60;;;;;;;;;;5044109;28;20033;-67
2022/07/31 10:44:29;;;;;;;2.67;1.75;;;;;;;;;;5041426;28;20041;-69
2022/07/31 10:47:16;;;;;;;3.17;1.55;;;;;;;;;;5040603;28;20048;-68
2022/07/31 10:50:00;;;;;;;2.58;1.60;;;;;;;;;;5056549;28;20445;-66
2022/07/31 10:52:43;;;;;;;2.78;1.83;;;;;;;;;;5057166;28;20044;-66
2022/07/31 10:55:26;;;;;;;3.10;1.65;;;;;;;;;;5057767;28;20037;-67
2022/07/31 10:58:20;;;;;;;4.03;2.15;;;;;;;;;;5037443;28;20031;-67
2022/07/31 11:00:51;;;;;;;3.10;2.22;;;;;;;;;;5048826;28;20408;-70
2022/07/31 11:03:32;;;;;;;;;;;;;;;;;;5040208;28;20072;-68
2022/07/31 11:06:20;;;;;;;4.25;2.15;;;;;;;;;;5053841;28;19944;-68
2022/07/31 11:08:54;;;;;;;5.28;2.97;;;;;;;;;;5040769;28;20033;-67
2022/07/31 11:11:51;;;;;;;5.65;2.90;;;;;;;;;;5039306;28;20029;-67
2022/07/31 11:14:34;;;;;;;10.85;3.40;;;;;;;;;;5060007;28;20048;-67
2022/07/31 11:17:30;;;;;;;3.55;3.05;;;;;;;;;;5059379;28;20511;-66
2022/07/31 11:20:23;;;;;;;3.67;2.85;;;;;;;;;;5055975;28;20573;-67
2022/07/31 11:22:56;;;;;;;4.88;3.55;;;;;;;;;;5062012;28;20087;-67
2022/07/31 11:25:22;;;;;;;5.35;3.22;;;;;;;;;;5056978;28;20037;-67
2022/07/31 11:27:49;;;;;;;4.47;3.10;;;;;;;;;;5055738;28;20484;-67
2022/07/31 11:30:15;;;;;;;5.03;3.33;;;;;;;;;;5058243;28;20040;-68
2022/07/31 11:32:52;;;;;;;9.32;3.38;;;;;;;;;;5059755;28;20455;-68
2022/07/31 11:35:25;;;;;;;5.75;3.10;;;;;;;;;;5060281;28;20025;-67
2022/07/31 11:37:51;;;;;;;5.97;2.97;;;;;;;;;;5063108;28;20031;-67
2022/07/31 11:40:19;;;;;;;4.80;2.67;;;;;;;;;;5058921;28;20047;-67
2022/07/31 11:42:45;;;;;;;5.10;2.90;;;;;;;;;;5068264;28;20043;-68
2022/07/31 11:45:13;;;;;;;5.07;3.50;;;;;;;;;;5061222;28;20020;-67
2022/07/31 11:47:40;;;;;;;5.45;3.00;;;;;;;;;;5061241;28;20082;-67
2022/07/31 11:50:09;;;;;;;6.07;2.92;;;;;;;;;;5064525;28;20032;-68
2022/07/31 11:52:35;;;;;;;3.95;2.70;;;;;;;;;;5060593;28;20480;-68
2022/07/31 11:55:09;;;;;;;5.25;3.60;;;;;;;;;;5067042;28;20027;-68
2022/07/31 11:57:35;;;;;;;7.93;3.08;;;;;;;;;;5067878;28;20032;-67
2022/07/31 12:00:08;;;;;;;3.00;2.20;;;;;;;;;;5069725;28;20115;-68
2022/07/31 12:02:41;;;;;;;3.58;1.77;;;;;;;;;;5058059;28;20094;-68
2022/07/31 12:05:08;;;;;;;5.20;1.90;;;;;;;;;;5071692;28;20029;-67
2022/07/31 12:07:35;;;;;;;6.53;2.28;;;;;;;;;;5073458;28;20393;-68
2022/07/31 12:10:01;;;;;;;5.13;2.03;;;;;;;;;;5075567;28;20035;-66
2022/07/31 12:12:27;;;;;;;4.07;2.00;;;;;;;;;;5066275;28;20031;-67
2022/07/31 12:14:53;;;;;;;6.20;2.20;;;;;;;;;;5064100;28;20523;-67
2022/07/31 12:17:21;;;;;;;4.70;2.47;;;;;;;;;;5064691;28;20036;-67
2022/07/31 12:19:47;;;;;;;2.55;2.00;;;;;;;;;;5068444;28;20020;-67
2022/07/31 12:22:14;;;;;;;4.75;2.80;;;;;;;;;;5056830;28;20039;-67
2022/07/31 12:24:41;;;;;;;6.00;2.85;;;;;;;;;;5065226;28;20055;-67
2022/07/31 12:27:08;;;;;;;3.50;1.60;;;;;;;;;;5065029;28;20041;-67
2022/07/31 12:29:36;;;;;;;4.32;1.27;;;;;;;;;;5072604;28;20535;-67
2022/07/31 12:32:02;;;;;;;2.55;1.23;;;;;;;;;;5065631;28;20497;-67
2022/07/31 12:34:29;;;;;;;2.53;1.38;;;;;;;;;;5070424;28;20021;-69
2022/07/31 12:36:56;;;;;;;3.80;1.67;;;;;;;;;;5066602;28;20058;-71
2022/07/31 12:39:22;;;;;;;2.08;1.50;;;;;;;;;;5064563;28;20112;-67
2022/07/31 12:41:49;;;;;;;4.82;1.60;;;;;;;;;;5067515;28;20028;-66
2022/07/31 12:44:15;;;;;;;3.35;2.30;;;;;;;;;;5069261;28;20016;-70
2022/07/31 12:46:41;;;;;;;4.88;1.95;;;;;;;;;;5068810;28;20032;-70
2022/07/31 12:49:07;;;;;;;3.80;1.30;;;;;;;;;;5066503;28;20056;-70
2022/07/31 12:51:34;;;;;;;2.05;1.30;;;;;;;;;;5067000;28;20024;-70
2022/07/31 12:54:02;;;;;;;3.30;1.80;;;;;;;;;;5066568;28;20052;-70
2022/07/31 12:56:28;;;;;;;1.70;1.20;;;;;;;;;;5064117;28;20031;-70
2022/07/31 12:58:54;;;;;;;3.00;1.48;;;;;;;;;;5066420;28;20063;-70
2022/07/31 13:01:20;;;;;;;3.75;1.40;;;;;;;;;;5064868;28;20067;-70
2022/07/31 13:03:49;;;;;;;5.63;1.85;;;;;;;;;;5067472;28;20047;-70
2022/07/31 13:06:16;;;;;;;5.05;1.42;;;;;;;;;;5065228;28;20494;-69
2022/07/31 13:08:42;;;;;;;5.93;1.90;;;;;;;;;;5057409;28;20111;-70
2022/07/31 13:11:08;;;;;;;4.57;1.95;;;;;;;;;;5060604;28;20086;-70
2022/07/31 13:13:34;;;;;;;5.63;1.92;;;;;;;;;;5062338;28;20118;-70
2022/07/31 13:16:01;;;;;;;6.50;2.10;;;;;;;;;;5085254;28;20549;-69
2022/07/31 13:18:28;;;;;;;8.35;2.65;;;;;;;;;;5079913;28;20024;-69
2022/07/31 13:20:55;;;;;;;6.22;2.50;;;;;;;;;;5079905;28;20028;-68
2022/07/31 13:23:21;;;;;;;4.70;2.58;;;;;;;;;;5085430;28;20063;-68
2022/07/31 13:25:47;;;;;;;6.45;2.55;;;;;;;;;;5081406;28;20020;-67
2022/07/31 13:28:13;;;;;;;7.75;2.60;;;;;;;;;;5078438;28;20024;-67
2022/07/31 13:30:39;;;;;;;5.38;2.55;;;;;;;;;;5082977;28;20952;-67
2022/07/31 13:33:05;;;;;;;7.35;2.50;;;;;;;;;;5082869;28;20036;-67
2022/07/31 13:35:33;;;;;;;5.88;1.52;;;;;;;;;;5087373;28;20726;-67
2022/07/31 13:37:59;;;;;;;3.40;1.55;;;;;;;;;;5091540;28;20115;-67
2022/07/31 13:43:11;;;;;;;4.63;1.50;;;;;;;;;;5086696;28;20103;-67
2022/07/31 13:45:37;;;;;;;2.63;1.17;;;;;;;;;;5093676;28;20554;-67
2022/07/31 13:48:03;;;;;;;2.35;1.08;;;;;;;;;;5094169;28;20357;-68
2022/07/31 13:50:29;;;;;;;2.10;1.08;;;;;;;;;;5091769;28;20028;-67
2022/07/31 13:52:57;;;;;;;4.00;1.30;;;;;;;;;;5096599;28;20049;-67
2022/07/31 13:55:24;;;;;;;4.00;1.50;;;;;;;;;;5088884;28;20023;-67
2022/07/31 13:57:50;;;;;;;6.70;2.60;;;;;;;;;;5090570;28;20073;-67
2022/07/31 14:00:16;;;;;;;5.10;2.17;;;;;;;;;;5093919;28;20384;-67
2022/07/31 14:02:45;;;;;;;4.85;2.00;;;;;;;;;;5086118;28;20024;-67
2022/07/31 14:05:11;;;;;;;3.80;2.35;;;;;;;;;;5088826;28;20032;-67
2022/07/31 14:07:38;;;;;;;5.20;1.92;;;;;;;;;;5088675;28;20036;-67
2022/07/31 14:10:05;;;;;;;5.47;2.03;;;;;;;;;;5092966;28;20036;-67
2022/07/31 14:12:31;;;;;;;8.20;2.00;;;;;;;;;;5066526;28;20030;-67
2022/07/31 14:14:57;;;;;;;3.97;1.98;;;;;;;;;;5088739;28;20404;-67
2022/07/31 14:17:23;;;;;;;4.82;2.03;;;;;;;;;;5089535;28;20062;-67
2022/07/31 14:19:49;;;;;;;9.30;2.33;;;;;;;;;;5089209;28;20028;-66
2022/07/31 14:22:15;;;;;;;2.63;2.13;;;;;;;;;;5084691;28;20112;-70
2022/07/31 14:24:42;;;;;;;3.15;1.90;;;;;;;;;;5089313;28;20115;-67
2022/07/31 14:27:08;;;;;;;3.05;2.35;;;;;;;;;;5090829;28;20043;-67
2022/07/31 14:29:34;;;;;;;4.43;2.75;;;;;;;;;;5090663;28;20554;-67
2022/07/31 14:32:01;;;;;;;3.55;2.90;;;;;;;;;;5094430;28;20085;-67
2022/07/31 14:34:27;;;;;;;5.55;3.17;;;;;;;;;;5088397;28;20576;-67
2022/07/31 14:36:53;;;;;;;4.55;3.65;;;;;;;;;;5095890;28;20544;-67
2022/07/31 14:39:19;;;;;;;6.22;3.10;;;;;;;;;;5089371;28;20063;-67
2022/07/31 14:41:45;;;;;;;6.07;3.63;;;;;;;;;;5074046;28;20139;-67
2022/07/31 14:44:13;;;;;;;6.10;3.85;;;;;;;;;;5093220;28;20023;-67
2022/07/31 14:46:39;;;;;;;6.03;3.17;;;;;;;;;;5088487;28;20036;-67
2022/07/31 14:49:07;;;;;;;5.13;3.42;;;;;;;;;;5091796;28;20130;-67
2022/07/31 14:51:34;;;;;;;6.65;3.92;;;;;;;;;;5094390;28;20074;-67
2022/07/31 14:54:00;;;;;;;5.95;3.85;;;;;;;;;;5089092;28;20024;-67
2022/07/31 14:56:26;;;;;;;5.47;4.25;;;;;;;;;;5091324;28;20037;-66
2022/07/31 14:58:52;;;;;;;5.72;3.60;;;;;;;;;;5078349;28;20391;-67
2022/07/31 15:01:18;;;;;;;6.57;3.53;;;;;;;;;;5100096;28;20032;-67
2022/07/31 15:03:44;;;;;;;7.97;3.92;;;;;;;;;;5068894;28;20020;-67
2022/07/31 15:06:10;;;;;;;12.63;4.28;;;;;;;;;;5093575;28;20682;-67